sensor_id;sensor_type;location;lat;lon;timestamp;P1;durP1;ratioP1;P2;durP2;ratioP2
44428;SDS011;30134;47.866;-4.222;2022-11-18T00:01:03;9.40;;;5.40;;
44428;SDS011;30134;47.866;-4.222;2022-11-18T00:03:35;9.75;;;5.60;;
44428;SDS011;30134;47.866;-4.222;2022-11-18T00:06:02;8.57;;;5.65;;
44428;SDS011;30134;47.866;-4.222;2022-11-18T00:08:30;13.18;;;5.43;;
44428;SDS011;30134;47.866;-4.222;2022-11-18T00:10:56;7.45;;;5.28;;
44428;SDS011;30134;47.866;-4.222;2022-11-18T00:13:22;12.63;;;5.45;;
44428;SDS011;30134;47.866;-4.222;2022-11-18T00:16:08;8.05;;;4.63;;
44428;SDS011;30134;47.866;-4.222;2022-11-18T00:18:36;9.93;;;5.07;;
44428;SDS011;30134;47.866;-4.222;2022-11-18T00:21:04;7.72;;;5.07;;
44428;SDS011;30134;47.866;-4.222;2022-11-18T00:23:32;7.85;;;5.25;;
44428;SDS011;30134;47.866;-4.222;2022-11-18T00:26:02;8.63;;;4.78;;
44428;SDS011;30134;47.866;-4.222;2022-11-18T00:28:30;7.75;;;4.80;;
44428;SDS011;30134;47.866;-4.222;2022-11-18T00:31:01;8.02;;;5.13;;
44428;SDS011;30134;47.866;-4.222;2022-11-18T00:33:35;7.28;;;4.30;;
44428;SDS011;30134;47.866;-4.222;2022-11-18T00:36:05;9.00;;;4.90;;
44428;SDS011;30134;47.866;-4.222;2022-11-18T00:38:35;6.40;;;4.45;;
44428;SDS011;30134;47.866;-4.222;2022-11-18T00:41:02;7.65;;;4.60;;
44428;SDS011;30134;47.866;-4.222;2022-11-18T00:43:31;7.00;;;4.82;;
44428;SDS011;30134;47.866;-4.222;2022-11-18T00:45:57;8.50;;;4.80;;
44428;SDS011;30134;47.866;-4.222;2022-11-18T00:48:23;7.30;;;4.18;;
44428;SDS011;30134;47.866;-4.222;2022-11-18T00:50:50;6.90;;;4.22;;
44428;SDS011;30134;47.866;-4.222;2022-11-18T00:53:18;7.60;;;4.25;;
44428;SDS011;30134;47.866;-4.222;2022-11-18T00:55:47;7.30;;;4.30;;
44428;SDS011;30134;47.866;-4.222;2022-11-18T00:58:13;7.20;;;4.47;;
44428;SDS011;30134;47.866;-4.222;2022-11-18T01:00:43;6.90;;;4.00;;
44428;SDS011;30134;47.866;-4.222;2022-11-18T01:03:12;7.10;;;4.40;;
44428;SDS011;30134;47.866;-4.222;2022-11-18T01:05:38;6.75;;;4.22;;
44428;SDS011;30134;47.866;-4.222;2022-11-18T01:08:05;7.90;;;4.38;;
44428;SDS011;30134;47.866;-4.222;2022-11-18T01:10:34;6.68;;;4.30;;
44428;SDS011;30134;47.866;-4.222;2022-11-18T01:13:02;6.05;;;3.70;;
44428;SDS011;30134;47.866;-4.222;2022-11-18T01:15:54;5.13;;;3.80;;
44428;SDS011;30134;47.866;-4.222;2022-11-18T01:18:26;8.52;;;3.95;;
44428;SDS011;30134;47.866;-4.222;2022-11-18T01:20:58;4.95;;;3.88;;
44428;SDS011;30134;47.866;-4.222;2022-11-18T01:23:26;6.68;;;3.83;;
44428;SDS011;30134;47.866;-4.222;2022-11-18T01:25:52;6.68;;;3.95;;
44428;SDS011;30134;47.866;-4.222;2022-11-18T01:28:18;5.75;;;3.65;;
44428;SDS011;30134;47.866;-4.222;2022-11-18T01:30:44;5.75;;;3.80;;
44428;SDS011;30134;47.866;-4.222;2022-11-18T01:33:11;6.95;;;3.92;;
44428;SDS011;30134;47.866;-4.222;2022-11-18T01:35:38;5.65;;;3.45;;
44428;SDS011;30134;47.866;-4.222;2022-11-18T01:38:07;5.72;;;3.40;;
44428;SDS011;30134;47.866;-4.222;2022-11-18T01:40:36;4.20;;;3.10;;
44428;SDS011;30134;47.866;-4.222;2022-11-18T01:43:05;4.75;;;3.28;;
44428;SDS011;30134;47.866;-4.222;2022-11-18T01:45:40;5.40;;;3.40;;
44428;SDS011;30134;47.866;-4.222;2022-11-18T01:51:01;3.78;;;2.95;;
44428;SDS011;30134;47.866;-4.222;2022-11-18T01:53:44;5.25;;;3.33;;
44428;SDS011;30134;47.866;-4.222;2022-11-18T01:56:19;5.57;;;3.13;;
44428;SDS011;30134;47.866;-4.222;2022-11-18T01:58:55;5.13;;;3.10;;
44428;SDS011;30134;47.866;-4.222;2022-11-18T02:01:26;5.35;;;3.05;;
44428;SDS011;30134;47.866;-4.222;2022-11-18T02:03:52;4.57;;;2.97;;
44428;SDS011;30134;47.866;-4.222;2022-11-18T02:06:18;5.45;;;3.10;;
44428;SDS011;30134;47.866;-4.222;2022-11-18T02:08:45;4.38;;;2.88;;
44428;SDS011;30134;47.866;-4.222;2022-11-18T02:11:13;5.25;;;2.95;;
44428;SDS011;30134;47.866;-4.222;2022-11-18T02:13:59;4.43;;;2.80;;
44428;SDS011;30134;47.866;-4.222;2022-11-18T02:16:36;4.53;;;2.92;;
44428;SDS011;30134;47.866;-4.222;2022-11-18T02:30:56;5.28;;;2.92;;
44428;SDS011;30134;47.866;-4.222;2022-11-18T02:33:27;4.10;;;2.53;;
44428;SDS011;30134;47.866;-4.222;2022-11-18T02:39:07;6.25;;;2.90;;
44428;SDS011;30134;47.866;-4.222;2022-11-18T02:41:46;4.40;;;2.80;;
44428;SDS011;30134;47.866;-4.222;2022-11-18T02:44:17;3.83;;;2.50;;
44428;SDS011;30134;47.866;-4.222;2022-11-18T02:46:46;4.40;;;2.22;;
44428;SDS011;30134;47.866;-4.222;2022-11-18T02:49:21;4.00;;;2.80;;
44428;SDS011;30134;47.866;-4.222;2022-11-18T02:51:52;5.07;;;2.88;;
44428;SDS011;30134;47.866;-4.222;2022-11-18T02:54:20;4.18;;;2.58;;
44428;SDS011;30134;47.866;-4.222;2022-11-18T02:56:49;3.97;;;2.65;;
44428;SDS011;30134;47.866;-4.222;2022-11-18T02:59:18;4.63;;;2.95;;
44428;SDS011;30134;47.866;-4.222;2022-11-18T03:01:45;3.75;;;2.35;;
44428;SDS011;30134;47.866;-4.222;2022-11-18T03:04:12;6.22;;;2.47;;
44428;SDS011;30134;47.866;-4.222;2022-11-18T03:06:41;2.95;;;2.35;;
44428;SDS011;30134;47.866;-4.222;2022-11-18T03:17:31;3.33;;;2.22;;
44428;SDS011;30134;47.866;-4.222;2022-11-18T03:20:30;3.58;;;2.30;;
44428;SDS011;30134;47.866;-4.222;2022-11-18T03:23:04;3.60;;;2.28;;
44428;SDS011;30134;47.866;-4.222;2022-11-18T03:28:30;3.35;;;2.25;;
44428;SDS011;30134;47.866;-4.222;2022-11-18T03:31:05;3.97;;;2.38;;
44428;SDS011;30134;47.866;-4.222;2022-11-18T03:36:28;3.58;;;2.20;;
44428;SDS011;30134;47.866;-4.222;2022-11-18T03:39:00;3.83;;;2.17;;
44428;SDS011;30134;47.866;-4.222;2022-11-18T03:41:30;2.90;;;1.83;;
44428;SDS011;30134;47.866;-4.222;2022-11-18T03:44:06;2.67;;;1.88;;
44428;SDS011;30134;47.866;-4.222;2022-11-18T03:46:39;3.35;;;1.98;;
44428;SDS011;30134;47.866;-4.222;2022-11-18T03:49:18;3.30;;;2.22;;
44428;SDS011;30134;47.866;-4.222;2022-11-18T03:51:53;3.60;;;2.00;;
44428;SDS011;30134;47.866;-4.222;2022-11-18T03:54:28;3.63;;;2.20;;
44428;SDS011;30134;47.866;-4.222;2022-11-18T03:56:59;2.53;;;1.83;;
44428;SDS011;30134;47.866;-4.222;2022-11-18T03:59:36;2.92;;;2.10;;
44428;SDS011;30134;47.866;-4.222;2022-11-18T04:02:22;2.78;;;1.80;;
44428;SDS011;30134;47.866;-4.222;2022-11-18T04:04:51;2.55;;;1.75;;
44428;SDS011;30134;47.866;-4.222;2022-11-18T04:07:35;2.10;;;1.48;;
44428;SDS011;30134;47.866;-4.222;2022-11-18T04:13:04;2.15;;;1.58;;
44428;SDS011;30134;47.866;-4.222;2022-11-18T04:15:39;2.67;;;1.80;;
44428;SDS011;30134;47.866;-4.222;2022-11-18T04:18:07;2.75;;;1.88;;
44428;SDS011;30134;47.866;-4.222;2022-11-18T04:20:33;3.17;;;2.05;;
44428;SDS011;30134;47.866;-4.222;2022-11-18T04:23:01;3.35;;;2.10;;
44428;SDS011;30134;47.866;-4.222;2022-11-18T04:25:28;3.38;;;1.85;;
44428;SDS011;30134;47.866;-4.222;2022-11-18T04:27:54;2.78;;;1.88;;
44428;SDS011;30134;47.866;-4.222;2022-11-18T04:30:20;2.72;;;1.60;;
44428;SDS011;30134;47.866;-4.222;2022-11-18T04:32:46;2.38;;;1.42;;
44428;SDS011;30134;47.866;-4.222;2022-11-18T04:35:13;3.42;;;1.73;;
44428;SDS011;30134;47.866;-4.222;2022-11-18T04:37:39;2.83;;;1.60;;
44428;SDS011;30134;47.866;-4.222;2022-11-18T04:40:06;2.92;;;1.92;;
44428;SDS011;30134;47.866;-4.222;2022-11-18T04:42:33;3.08;;;1.80;;
44428;SDS011;30134;47.866;-4.222;2022-11-18T04:44:59;3.38;;;2.08;;
44428;SDS011;30134;47.866;-4.222;2022-11-18T04:47:25;2.85;;;1.60;;
44428;SDS011;30134;47.866;-4.222;2022-11-18T04:49:51;2.78;;;1.80;;
44428;SDS011;30134;47.866;-4.222;2022-11-18T04:52:18;2.85;;;1.73;;
44428;SDS011;30134;47.866;-4.222;2022-11-18T04:54:44;3.50;;;1.92;;
44428;SDS011;30134;47.866;-4.222;2022-11-18T04:57:10;2.78;;;1.73;;
44428;SDS011;30134;47.866;-4.222;2022-11-18T04:59:37;2.78;;;1.90;;
44428;SDS011;30134;47.866;-4.222;2022-11-18T05:02:03;2.90;;;1.63;;
44428;SDS011;30134;47.866;-4.222;2022-11-18T05:04:30;2.17;;;1.73;;
44428;SDS011;30134;47.866;-4.222;2022-11-18T05:06:58;1.88;;;1.48;;
44428;SDS011;30134;47.866;-4.222;2022-11-18T05:09:26;1.73;;;1.20;;
44428;SDS011;30134;47.866;-4.222;2022-11-18T05:11:52;2.70;;;1.58;;
44428;SDS011;30134;47.866;-4.222;2022-11-18T05:14:37;2.78;;;1.80;;
44428;SDS011;30134;47.866;-4.222;2022-11-18T05:17:04;2.47;;;1.45;;
44428;SDS011;30134;47.866;-4.222;2022-11-18T05:19:32;2.58;;;1.58;;
44428;SDS011;30134;47.866;-4.222;2022-11-18T05:21:58;2.20;;;1.50;;
44428;SDS011;30134;47.866;-4.222;2022-11-18T05:24:24;2.17;;;1.40;;
44428;SDS011;30134;47.866;-4.222;2022-11-18T05:26:51;1.88;;;1.45;;
44428;SDS011;30134;47.866;-4.222;2022-11-18T05:29:18;1.98;;;1.60;;
44428;SDS011;30134;47.866;-4.222;2022-11-18T05:31:45;2.85;;;1.38;;
44428;SDS011;30134;47.866;-4.222;2022-11-18T05:34:12;2.72;;;1.80;;
44428;SDS011;30134;47.866;-4.222;2022-11-18T05:36:39;1.95;;;1.60;;
44428;SDS011;30134;47.866;-4.222;2022-11-18T05:39:05;1.98;;;1.70;;
44428;SDS011;30134;47.866;-4.222;2022-11-18T05:41:31;2.78;;;1.63;;
44428;SDS011;30134;47.866;-4.222;2022-11-18T05:44:17;2.53;;;1.52;;
44428;SDS011;30134;47.866;-4.222;2022-11-18T05:46:43;1.55;;;1.20;;
44428;SDS011;30134;47.866;-4.222;2022-11-18T05:49:09;2.47;;;1.55;;
44428;SDS011;30134;47.866;-4.222;2022-11-18T05:51:35;2.30;;;1.33;;
44428;SDS011;30134;47.866;-4.222;2022-11-18T05:54:04;3.65;;;1.88;;
44428;SDS011;30134;47.866;-4.222;2022-11-18T05:59:04;4.15;;;1.58;;
44428;SDS011;30134;47.866;-4.222;2022-11-18T06:01:32;1.90;;;1.40;;
44428;SDS011;30134;47.866;-4.222;2022-11-18T06:04:30;1.70;;;1.30;;
44428;SDS011;30134;47.866;-4.222;2022-11-18T06:07:17;2.63;;;1.50;;
44428;SDS011;30134;47.866;-4.222;2022-11-18T06:09:54;2.08;;;1.42;;
44428;SDS011;30134;47.866;-4.222;2022-11-18T06:12:24;2.45;;;1.50;;
44428;SDS011;30134;47.866;-4.222;2022-11-18T06:14:56;2.03;;;1.58;;
44428;SDS011;30134;47.866;-4.222;2022-11-18T06:17:46;2.13;;;1.25;;
44428;SDS011;30134;47.866;-4.222;2022-11-18T06:20:29;3.25;;;1.35;;
44428;SDS011;30134;47.866;-4.222;2022-11-18T06:22:57;2.25;;;1.40;;
44428;SDS011;30134;47.866;-4.222;2022-11-18T06:25:25;2.05;;;1.42;;
44428;SDS011;30134;47.866;-4.222;2022-11-18T06:27:52;2.45;;;1.70;;
44428;SDS011;30134;47.866;-4.222;2022-11-18T06:30:23;2.60;;;1.45;;
44428;SDS011;30134;47.866;-4.222;2022-11-18T06:32:49;2.45;;;1.52;;
44428;SDS011;30134;47.866;-4.222;2022-11-18T06:35:17;2.00;;;1.02;;
44428;SDS011;30134;47.866;-4.222;2022-11-18T06:37:45;1.92;;;1.35;;
44428;SDS011;30134;47.866;-4.222;2022-11-18T06:40:11;1.80;;;1.27;;
44428;SDS011;30134;47.866;-4.222;2022-11-18T06:42:37;2.05;;;1.10;;
44428;SDS011;30134;47.866;-4.222;2022-11-18T06:45:22;2.40;;;1.40;;
44428;SDS011;30134;47.866;-4.222;2022-11-18T06:47:48;1.77;;;1.20;;
44428;SDS011;30134;47.866;-4.222;2022-11-18T06:50:14;2.50;;;1.40;;
44428;SDS011;30134;47.866;-4.222;2022-11-18T06:52:40;2.88;;;1.45;;
44428;SDS011;30134;47.866;-4.222;2022-11-18T06:55:06;2.08;;;1.35;;
44428;SDS011;30134;47.866;-4.222;2022-11-18T06:57:33;1.90;;;1.20;;
44428;SDS011;30134;47.866;-4.222;2022-11-18T06:59:59;1.60;;;1.23;;
44428;SDS011;30134;47.866;-4.222;2022-11-18T07:02:25;2.33;;;1.50;;
44428;SDS011;30134;47.866;-4.222;2022-11-18T07:04:54;1.73;;;1.20;;
44428;SDS011;30134;47.866;-4.222;2022-11-18T07:07:19;1.33;;;1.00;;
44428;SDS011;30134;47.866;-4.222;2022-11-18T07:09:46;2.30;;;1.30;;
44428;SDS011;30134;47.866;-4.222;2022-11-18T07:12:11;2.42;;;1.42;;
44428;SDS011;30134;47.866;-4.222;2022-11-18T07:14:40;1.63;;;1.00;;
44428;SDS011;30134;47.866;-4.222;2022-11-18T07:17:06;1.92;;;1.40;;
44428;SDS011;30134;47.866;-4.222;2022-11-18T07:19:32;1.95;;;1.23;;
44428;SDS011;30134;47.866;-4.222;2022-11-18T07:21:58;2.72;;;1.30;;
44428;SDS011;30134;47.866;-4.222;2022-11-18T07:24:24;1.42;;;1.13;;
44428;SDS011;30134;47.866;-4.222;2022-11-18T07:26:51;2.20;;;1.30;;
44428;SDS011;30134;47.866;-4.222;2022-11-18T07:29:18;2.47;;;1.20;;
44428;SDS011;30134;47.866;-4.222;2022-11-18T07:31:44;1.42;;;1.00;;
44428;SDS011;30134;47.866;-4.222;2022-11-18T07:34:10;1.63;;;1.10;;
44428;SDS011;30134;47.866;-4.222;2022-11-18T07:36:37;2.22;;;1.20;;
44428;SDS011;30134;47.866;-4.222;2022-11-18T07:39:04;1.85;;;1.20;;
44428;SDS011;30134;47.866;-4.222;2022-11-18T07:41:31;1.73;;;1.30;;
44428;SDS011;30134;47.866;-4.222;2022-11-18T07:44:00;2.10;;;1.15;;
44428;SDS011;30134;47.866;-4.222;2022-11-18T07:46:35;1.95;;;1.30;;
44428;SDS011;30134;47.866;-4.222;2022-11-18T07:49:03;1.95;;;1.35;;
44428;SDS011;30134;47.866;-4.222;2022-11-18T07:51:32;1.40;;;1.17;;
44428;SDS011;30134;47.866;-4.222;2022-11-18T07:54:08;1.52;;;1.20;;
44428;SDS011;30134;47.866;-4.222;2022-11-18T07:56:36;1.95;;;1.20;;
44428;SDS011;30134;47.866;-4.222;2022-11-18T07:59:02;2.47;;;1.33;;
44428;SDS011;30134;47.866;-4.222;2022-11-18T08:01:29;2.00;;;0.98;;
44428;SDS011;30134;47.866;-4.222;2022-11-18T08:03:56;3.20;;;1.55;;
44428;SDS011;30134;47.866;-4.222;2022-11-18T08:06:30;2.78;;;1.27;;
44428;SDS011;30134;47.866;-4.222;2022-11-18T08:08:58;1.88;;;1.30;;
44428;SDS011;30134;47.866;-4.222;2022-11-18T08:11:26;3.30;;;1.40;;
44428;SDS011;30134;47.866;-4.222;2022-11-18T08:13:52;2.08;;;1.35;;
44428;SDS011;30134;47.866;-4.222;2022-11-18T08:16:19;2.58;;;1.35;;
44428;SDS011;30134;47.866;-4.222;2022-11-18T08:18:47;1.77;;;1.10;;
44428;SDS011;30134;47.866;-4.222;2022-11-18T08:21:14;3.33;;;1.10;;
44428;SDS011;30134;47.866;-4.222;2022-11-18T08:23:42;1.70;;;1.15;;
44428;SDS011;30134;47.866;-4.222;2022-11-18T08:26:13;1.48;;;1.00;;
44428;SDS011;30134;47.866;-4.222;2022-11-18T08:28:40;1.70;;;1.17;;
44428;SDS011;30134;47.866;-4.222;2022-11-18T08:31:15;1.33;;;1.23;;
44428;SDS011;30134;47.866;-4.222;2022-11-18T08:33:48;1.55;;;1.15;;
44428;SDS011;30134;47.866;-4.222;2022-11-18T08:36:20;1.95;;;1.20;;
44428;SDS011;30134;47.866;-4.222;2022-11-18T08:38:48;2.22;;;1.10;;
44428;SDS011;30134;47.866;-4.222;2022-11-18T08:41:15;1.65;;;0.90;;
44428;SDS011;30134;47.866;-4.222;2022-11-18T08:44:13;1.80;;;1.30;;
44428;SDS011;30134;47.866;-4.222;2022-11-18T08:46:41;2.40;;;1.17;;
44428;SDS011;30134;47.866;-4.222;2022-11-18T08:49:09;2.03;;;1.30;;
44428;SDS011;30134;47.866;-4.222;2022-11-18T08:51:36;1.67;;;1.20;;
44428;SDS011;30134;47.866;-4.222;2022-11-18T08:54:02;1.77;;;1.17;;
44428;SDS011;30134;47.866;-4.222;2022-11-18T08:56:28;2.28;;;1.38;;
44428;SDS011;30134;47.866;-4.222;2022-11-18T08:58:54;5.60;;;2.15;;
44428;SDS011;30134;47.866;-4.222;2022-11-18T09:01:21;5.13;;;2.38;;
44428;SDS011;30134;47.866;-4.222;2022-11-18T09:03:47;4.55;;;2.10;;
44428;SDS011;30134;47.866;-4.222;2022-11-18T09:06:15;12.07;;;3.10;;
44428;SDS011;30134;47.866;-4.222;2022-11-18T09:08:44;6.30;;;3.20;;
44428;SDS011;30134;47.866;-4.222;2022-11-18T09:11:15;10.68;;;3.60;;
44428;SDS011;30134;47.866;-4.222;2022-11-18T09:13:45;9.57;;;4.15;;
44428;SDS011;30134;47.866;-4.222;2022-11-18T09:16:11;7.28;;;3.53;;
44428;SDS011;30134;47.866;-4.222;2022-11-18T09:18:37;8.30;;;4.55;;
44428;SDS011;30134;47.866;-4.222;2022-11-18T09:21:04;8.20;;;4.07;;
44428;SDS011;30134;47.866;-4.222;2022-11-18T09:23:33;10.60;;;4.30;;
44428;SDS011;30134;47.866;-4.222;2022-11-18T09:26:05;7.10;;;4.25;;
44428;SDS011;30134;47.866;-4.222;2022-11-18T09:28:34;10.45;;;4.88;;
44428;SDS011;30134;47.866;-4.222;2022-11-18T09:31:04;7.72;;;4.50;;
44428;SDS011;30134;47.866;-4.222;2022-11-18T09:33:42;7.83;;;4.10;;
44428;SDS011;30134;47.866;-4.222;2022-11-18T09:36:12;8.80;;;4.70;;
44428;SDS011;30134;47.866;-4.222;2022-11-18T09:38:45;8.80;;;4.13;;
44428;SDS011;30134;47.866;-4.222;2022-11-18T09:44:49;9.32;;;4.50;;
44428;SDS011;30134;47.866;-4.222;2022-11-18T09:47:38;7.60;;;4.05;;
44428;SDS011;30134;47.866;-4.222;2022-11-18T09:50:05;8.45;;;4.00;;
44428;SDS011;30134;47.866;-4.222;2022-11-18T09:55:31;9.63;;;3.80;;
44428;SDS011;30134;47.866;-4.222;2022-11-18T09:58:02;16.08;;;4.47;;
44428;SDS011;30134;47.866;-4.222;2022-11-18T10:00:30;7.53;;;3.38;;
44428;SDS011;30134;47.866;-4.222;2022-11-18T10:02:59;9.50;;;4.20;;
44428;SDS011;30134;47.866;-4.222;2022-11-18T10:05:44;13.90;;;8.23;;
44428;SDS011;30134;47.866;-4.222;2022-11-18T10:11:18;26.67;;;16.02;;
44428;SDS011;30134;47.866;-4.222;2022-11-18T10:20:04;43.08;;;26.90;;
44428;SDS011;30134;47.866;-4.222;2022-11-18T10:25:16;44.40;;;27.95;;
44428;SDS011;30134;47.866;-4.222;2022-11-18T10:27:46;40.78;;;26.23;;
44428;SDS011;30134;47.866;-4.222;2022-11-18T10:32:59;42.33;;;26.70;;
44428;SDS011;30134;47.866;-4.222;2022-11-18T10:35:36;40.60;;;26.17;;
44428;SDS011;30134;47.866;-4.222;2022-11-18T10:38:08;41.08;;;25.20;;
44428;SDS011;30134;47.866;-4.222;2022-11-18T10:40:44;37.60;;;24.08;;
44428;SDS011;30134;47.866;-4.222;2022-11-18T10:51:34;32.70;;;21.23;;
44428;SDS011;30134;47.866;-4.222;2022-11-18T10:54:35;31.33;;;21.90;;
44428;SDS011;30134;47.866;-4.222;2022-11-18T11:02:31;28.02;;;19.65;;
44428;SDS011;30134;47.866;-4.222;2022-11-18T11:05:14;29.08;;;19.42;;
44428;SDS011;30134;47.866;-4.222;2022-11-18T11:07:59;28.35;;;18.55;;
44428;SDS011;30134;47.866;-4.222;2022-11-18T11:10:30;27.05;;;19.02;;
44428;SDS011;30134;47.866;-4.222;2022-11-18T11:12:58;31.17;;;19.52;;
44428;SDS011;30134;47.866;-4.222;2022-11-18T11:18:16;25.38;;;17.17;;
44428;SDS011;30134;47.866;-4.222;2022-11-18T11:21:15;24.92;;;17.45;;
44428;SDS011;30134;47.866;-4.222;2022-11-18T11:23:44;23.25;;;16.73;;
44428;SDS011;30134;47.866;-4.222;2022-11-18T11:40:21;22.98;;;15.57;;
44428;SDS011;30134;47.866;-4.222;2022-11-18T11:43:33;20.65;;;14.85;;
44428;SDS011;30134;47.866;-4.222;2022-11-18T11:50:13;18.23;;;11.50;;
44428;SDS011;30134;47.866;-4.222;2022-11-18T12:07:57;18.20;;;13.10;;
44428;SDS011;30134;47.866;-4.222;2022-11-18T12:10:47;21.30;;;13.05;;
44428;SDS011;30134;47.866;-4.222;2022-11-18T12:13:42;20.80;;;13.93;;
44428;SDS011;30134;47.866;-4.222;2022-11-18T12:19:49;19.80;;;11.93;;
44428;SDS011;30134;47.866;-4.222;2022-11-18T12:22:15;16.95;;;11.20;;
44428;SDS011;30134;47.866;-4.222;2022-11-18T12:24:41;18.55;;;11.23;;
44428;SDS011;30134;47.866;-4.222;2022-11-18T12:27:52;13.95;;;9.50;;
44428;SDS011;30134;47.866;-4.222;2022-11-18T12:30:03;16.23;;;10.05;;
44428;SDS011;30134;47.866;-4.222;2022-11-18T12:32:42;14.90;;;10.30;;
44428;SDS011;30134;47.866;-4.222;2022-11-18T12:40:36;16.20;;;10.88;;
44428;SDS011;30134;47.866;-4.222;2022-11-18T12:51:53;14.13;;;9.52;;
44428;SDS011;30134;47.866;-4.222;2022-11-18T12:59:47;11.80;;;8.05;;
44428;SDS011;30134;47.866;-4.222;2022-11-18T13:05:07;13.35;;;8.60;;
44428;SDS011;30134;47.866;-4.222;2022-11-18T13:07:48;11.40;;;8.63;;
44428;SDS011;30134;47.866;-4.222;2022-11-18T13:10:37;11.95;;;8.40;;
44428;SDS011;30134;47.866;-4.222;2022-11-18T13:13:26;13.43;;;7.63;;
44428;SDS011;30134;47.866;-4.222;2022-11-18T13:16:01;11.27;;;8.10;;
44428;SDS011;30134;47.866;-4.222;2022-11-18T13:18:56;10.68;;;7.82;;
44428;SDS011;30134;47.866;-4.222;2022-11-18T13:21:26;12.88;;;7.40;;
44428;SDS011;30134;47.866;-4.222;2022-11-18T13:24:20;10.40;;;7.10;;
44428;SDS011;30134;47.866;-4.222;2022-11-18T13:26:47;9.45;;;6.75;;
44428;SDS011;30134;47.866;-4.222;2022-11-18T13:32:22;11.00;;;6.63;;
44428;SDS011;30134;47.866;-4.222;2022-11-18T13:34:52;7.57;;;6.15;;
44428;SDS011;30134;47.866;-4.222;2022-11-18T13:37:23;10.00;;;6.13;;
44428;SDS011;30134;47.866;-4.222;2022-11-18T13:39:54;9.73;;;6.15;;
44428;SDS011;30134;47.866;-4.222;2022-11-18T13:42:25;11.07;;;5.82;;
44428;SDS011;30134;47.866;-4.222;2022-11-18T13:44:54;14.40;;;6.07;;
44428;SDS011;30134;47.866;-4.222;2022-11-18T13:55:47;9.18;;;6.03;;
44428;SDS011;30134;47.866;-4.222;2022-11-18T14:01:16;10.70;;;7.68;;
44428;SDS011;30134;47.866;-4.222;2022-11-18T14:03:47;10.07;;;7.28;;
44428;SDS011;30134;47.866;-4.222;2022-11-18T14:06:37;11.10;;;7.40;;
44428;SDS011;30134;47.866;-4.222;2022-11-18T14:09:17;11.40;;;8.02;;
44428;SDS011;30134;47.866;-4.222;2022-11-18T14:18:40;11.60;;;7.88;;
44428;SDS011;30134;47.866;-4.222;2022-11-18T14:21:02;11.35;;;7.97;;
44428;SDS011;30134;47.866;-4.222;2022-11-18T14:23:32;10.50;;;6.95;;
44428;SDS011;30134;47.866;-4.222;2022-11-18T14:26:03;14.02;;;7.93;;
44428;SDS011;30134;47.866;-4.222;2022-11-18T14:28:32;11.38;;;7.40;;
44428;SDS011;30134;47.866;-4.222;2022-11-18T14:36:42;8.70;;;6.68;;
44428;SDS011;30134;47.866;-4.222;2022-11-18T14:39:19;8.95;;;6.30;;
44428;SDS011;30134;47.866;-4.222;2022-11-18T14:41:51;8.25;;;5.80;;
44428;SDS011;30134;47.866;-4.222;2022-11-18T14:44:18;8.52;;;5.78;;
44428;SDS011;30134;47.866;-4.222;2022-11-18T14:46:50;9.80;;;6.60;;
44428;SDS011;30134;47.866;-4.222;2022-11-18T14:49:22;7.70;;;5.85;;
44428;SDS011;30134;47.866;-4.222;2022-11-18T14:51:51;10.05;;;6.05;;
44428;SDS011;30134;47.866;-4.222;2022-11-18T14:54:22;8.68;;;5.65;;
44428;SDS011;30134;47.866;-4.222;2022-11-18T14:56:50;7.70;;;6.05;;
44428;SDS011;30134;47.866;-4.222;2022-11-18T14:59:27;7.20;;;5.10;;
44428;SDS011;30134;47.866;-4.222;2022-11-18T15:01:55;7.25;;;5.57;;
44428;SDS011;30134;47.866;-4.222;2022-11-18T15:04:22;7.93;;;5.57;;
44428;SDS011;30134;47.866;-4.222;2022-11-18T15:06:49;8.00;;;5.00;;
44428;SDS011;30134;47.866;-4.222;2022-11-18T15:09:22;7.35;;;4.80;;
44428;SDS011;30134;47.866;-4.222;2022-11-18T15:11:48;6.20;;;4.82;;
44428;SDS011;30134;47.866;-4.222;2022-11-18T15:14:14;7.47;;;5.18;;
44428;SDS011;30134;47.866;-4.222;2022-11-18T15:16:41;7.70;;;5.07;;
44428;SDS011;30134;47.866;-4.222;2022-11-18T15:19:12;7.05;;;5.13;;
44428;SDS011;30134;47.866;-4.222;2022-11-18T15:21:39;6.82;;;4.70;;
44428;SDS011;30134;47.866;-4.222;2022-11-18T15:24:06;7.47;;;4.90;;
44428;SDS011;30134;47.866;-4.222;2022-11-18T15:26:37;6.53;;;4.63;;
44428;SDS011;30134;47.866;-4.222;2022-11-18T15:29:07;6.68;;;4.45;;
44428;SDS011;30134;47.866;-4.222;2022-11-18T15:31:43;5.50;;;4.00;;
44428;SDS011;30134;47.866;-4.222;2022-11-18T15:34:10;6.30;;;4.05;;
44428;SDS011;30134;47.866;-4.222;2022-11-18T15:36:36;6.68;;;4.55;;
44428;SDS011;30134;47.866;-4.222;2022-11-18T15:39:02;5.70;;;4.20;;
44428;SDS011;30134;47.866;-4.222;2022-11-18T15:41:28;6.95;;;4.70;;
44428;SDS011;30134;47.866;-4.222;2022-11-18T15:43:59;5.53;;;3.88;;
44428;SDS011;30134;47.866;-4.222;2022-11-18T15:46:27;5.55;;;3.83;;
44428;SDS011;30134;47.866;-4.222;2022-11-18T15:49:00;6.05;;;3.92;;
44428;SDS011;30134;47.866;-4.222;2022-11-18T15:51:26;4.63;;;3.80;;
44428;SDS011;30134;47.866;-4.222;2022-11-18T15:53:54;6.43;;;4.53;;
44428;SDS011;30134;47.866;-4.222;2022-11-18T16:01:36;5.55;;;4.05;;
44428;SDS011;30134;47.866;-4.222;2022-11-18T16:04:05;5.43;;;3.55;;
44428;SDS011;30134;47.866;-4.222;2022-11-18T16:06:34;8.68;;;4.15;;
44428;SDS011;30134;47.866;-4.222;2022-11-18T16:09:00;5.10;;;3.60;;
44428;SDS011;30134;47.866;-4.222;2022-11-18T16:11:27;8.30;;;4.30;;
44428;SDS011;30134;47.866;-4.222;2022-11-18T16:14:12;12.27;;;8.65;;
44428;SDS011;30134;47.866;-4.222;2022-11-18T16:16:41;15.90;;;11.25;;
44428;SDS011;30134;47.866;-4.222;2022-11-18T16:19:10;28.63;;;17.73;;
44428;SDS011;30134;47.866;-4.222;2022-11-18T16:21:40;29.10;;;19.38;;
44428;SDS011;30134;47.866;-4.222;2022-11-18T16:24:18;31.35;;;20.35;;
44428;SDS011;30134;47.866;-4.222;2022-11-18T16:26:52;31.92;;;21.38;;
44428;SDS011;30134;47.866;-4.222;2022-11-18T16:29:19;32.58;;;21.35;;
44428;SDS011;30134;47.866;-4.222;2022-11-18T16:31:48;29.23;;;19.67;;
44428;SDS011;30134;47.866;-4.222;2022-11-18T16:34:20;30.92;;;19.02;;
44428;SDS011;30134;47.866;-4.222;2022-11-18T16:36:49;24.67;;;16.90;;
44428;SDS011;30134;47.866;-4.222;2022-11-18T16:39:19;26.92;;;16.52;;
44428;SDS011;30134;47.866;-4.222;2022-11-18T16:41:49;24.98;;;16.05;;
44428;SDS011;30134;47.866;-4.222;2022-11-18T16:44:23;20.70;;;14.00;;
44428;SDS011;30134;47.866;-4.222;2022-11-18T16:46:50;20.33;;;13.63;;
44428;SDS011;30134;47.866;-4.222;2022-11-18T16:49:19;18.95;;;12.65;;
44428;SDS011;30134;47.866;-4.222;2022-11-18T16:51:49;18.27;;;12.43;;
44428;SDS011;30134;47.866;-4.222;2022-11-18T16:54:21;16.75;;;11.77;;
44428;SDS011;30134;47.866;-4.222;2022-11-18T16:56:53;16.67;;;11.32;;
44428;SDS011;30134;47.866;-4.222;2022-11-18T16:59:22;15.07;;;10.38;;
44428;SDS011;30134;47.866;-4.222;2022-11-18T17:01:50;14.60;;;9.88;;
44428;SDS011;30134;47.866;-4.222;2022-11-18T17:04:18;13.18;;;9.25;;
44428;SDS011;30134;47.866;-4.222;2022-11-18T17:06:45;13.38;;;9.43;;
44428;SDS011;30134;47.866;-4.222;2022-11-18T17:09:12;11.35;;;8.30;;
44428;SDS011;30134;47.866;-4.222;2022-11-18T17:11:41;12.20;;;8.77;;
44428;SDS011;30134;47.866;-4.222;2022-11-18T17:14:07;13.18;;;8.75;;
44428;SDS011;30134;47.866;-4.222;2022-11-18T17:16:33;12.15;;;8.10;;
44428;SDS011;30134;47.866;-4.222;2022-11-18T17:18:59;11.05;;;7.60;;
44428;SDS011;30134;47.866;-4.222;2022-11-18T17:21:26;12.48;;;7.53;;
44428;SDS011;30134;47.866;-4.222;2022-11-18T17:23:53;9.95;;;6.82;;
44428;SDS011;30134;47.866;-4.222;2022-11-18T17:26:21;10.63;;;7.50;;
44428;SDS011;30134;47.866;-4.222;2022-11-18T17:28:50;11.07;;;7.13;;
44428;SDS011;30134;47.866;-4.222;2022-11-18T17:31:17;9.18;;;6.45;;
44428;SDS011;30134;47.866;-4.222;2022-11-18T17:33:46;9.23;;;6.05;;
44428;SDS011;30134;47.866;-4.222;2022-11-18T17:36:14;8.48;;;5.95;;